sensor_id;sensor_type;location;lat;lon;timestamp;P1;P2;P0
73517;PMS5003;61766;60.318;25.044;2022-11-20T00:01:15;3;3;
73517;PMS5003;61766;60.318;25.044;2022-11-20T00:03:40;2;2;
73517;PMS5003;61766;60.318;25.044;2022-11-20T00:06:05;2;2;
73517;PMS5003;61766;60.318;25.044;2022-11-20T00:08:30;3;3;
73517;PMS5003;61766;60.318;25.044;2022-11-20T00:10:55;3;3;
73517;PMS5003;61766;60.318;25.044;2022-11-20T00:13:21;1;1;
73517;PMS5003;61766;60.318;25.044;2022-11-20T00:15:46;4;3;
73517;PMS5003;61766;60.318;25.044;2022-11-20T00:18:11;3;3;
73517;PMS5003;61766;60.318;25.044;2022-11-20T00:20:36;3;3;
73517;PMS5003;61766;60.318;25.044;2022-11-20T00:23:02;3;3;
73517;PMS5003;61766;60.318;25.044;2022-11-20T00:25:27;3;2;
73517;PMS5003;61766;60.318;25.044;2022-11-20T00:27:52;3;3;
73517;PMS5003;61766;60.318;25.044;2022-11-20T00:30:18;2;2;
73517;PMS5003;61766;60.318;25.044;2022-11-20T00:32:43;3;2;
73517;PMS5003;61766;60.318;25.044;2022-11-20T00:35:09;3;3;
73517;PMS5003;61766;60.318;25.044;2022-11-20T00:37:34;3;2;
73517;PMS5003;61766;60.318;25.044;2022-11-20T00:40:00;3;3;
73517;PMS5003;61766;60.318;25.044;2022-11-20T00:42:24;3;3;
73517;PMS5003;61766;60.318;25.044;2022-11-20T00:44:50;3;3;
73517;PMS5003;61766;60.318;25.044;2022-11-20T00:47:15;2;2;
73517;PMS5003;61766;60.318;25.044;2022-11-20T00:49:40;2;2;
73517;PMS5003;61766;60.318;25.044;2022-11-20T00:52:05;2;2;
73517;PMS5003;61766;60.318;25.044;2022-11-20T00:54:31;2;2;
73517;PMS5003;61766;60.318;25.044;2022-11-20T00:56:56;2;2;
73517;PMS5003;61766;60.318;25.044;2022-11-20T00:59:21;1;1;
73517;PMS5003;61766;60.318;25.044;2022-11-20T01:01:46;3;3;
73517;PMS5003;61766;60.318;25.044;2022-11-20T01:04:12;2;2;
73517;PMS5003;61766;60.318;25.044;2022-11-20T01:06:37;3;3;
73517;PMS5003;61766;60.318;25.044;2022-11-20T01:09:04;2;2;
73517;PMS5003;61766;60.318;25.044;2022-11-20T01:11:28;2;2;
73517;PMS5003;61766;60.318;25.044;2022-11-20T01:13:53;3;3;
73517;PMS5003;61766;60.318;25.044;2022-11-20T01:16:19;2;2;
73517;PMS5003;61766;60.318;25.044;2022-11-20T01:18:45;3;3;
73517;PMS5003;61766;60.318;25.044;2022-11-20T01:21:10;2;2;
73517;PMS5003;61766;60.318;25.044;2022-11-20T01:23:35;2;2;
73517;PMS5003;61766;60.318;25.044;2022-11-20T01:26:00;1;1;
73517;PMS5003;61766;60.318;25.044;2022-11-20T01:28:24;2;2;
73517;PMS5003;61766;60.318;25.044;2022-11-20T01:30:50;2;2;
73517;PMS5003;61766;60.318;25.044;2022-11-20T01:33:15;2;1;
73517;PMS5003;61766;60.318;25.044;2022-11-20T01:35:40;3;3;
73517;PMS5003;61766;60.318;25.044;2022-11-20T01:38:06;2;2;
73517;PMS5003;61766;60.318;25.044;2022-11-20T01:40:31;2;2;
73517;PMS5003;61766;60.318;25.044;2022-11-20T01:42:59;2;2;
73517;PMS5003;61766;60.318;25.044;2022-11-20T01:47:47;3;3;
73517;PMS5003;61766;60.318;25.044;2022-11-20T01:50:14;2;2;
73517;PMS5003;61766;60.318;25.044;2022-11-20T01:52:38;3;3;
73517;PMS5003;61766;60.318;25.044;2022-11-20T01:55:04;2;2;
73517;PMS5003;61766;60.318;25.044;2022-11-20T01:57:28;2;2;
73517;PMS5003;61766;60.318;25.044;2022-11-20T01:59:53;2;2;
73517;PMS5003;61766;60.318;25.044;2022-11-20T02:02:18;2;2;
73517;PMS5003;61766;60.318;25.044;2022-11-20T02:04:44;3;3;
73517;PMS5003;61766;60.318;25.044;2022-11-20T02:07:09;2;2;
73517;PMS5003;61766;60.318;25.044;2022-11-20T02:09:34;3;3;
73517;PMS5003;61766;60.318;25.044;2022-11-20T02:11:59;2;2;
73517;PMS5003;61766;60.318;25.044;2022-11-20T02:14:25;3;3;
73517;PMS5003;61766;60.318;25.044;2022-11-20T02:16:50;2;2;
73517;PMS5003;61766;60.318;25.044;2022-11-20T02:19:18;4;2;
73517;PMS5003;61766;60.318;25.044;2022-11-20T02:21:42;2;2;
73517;PMS5003;61766;60.318;25.044;2022-11-20T02:24:07;3;2;
73517;PMS5003;61766;60.318;25.044;2022-11-20T02:26:32;3;3;
73517;PMS5003;61766;60.318;25.044;2022-11-20T02:28:56;2;2;
73517;PMS5003;61766;60.318;25.044;2022-11-20T02:31:21;2;2;
73517;PMS5003;61766;60.318;25.044;2022-11-20T02:33:47;2;2;
73517;PMS5003;61766;60.318;25.044;2022-11-20T02:36:14;2;2;
73517;PMS5003;61766;60.318;25.044;2022-11-20T02:38:37;2;2;
73517;PMS5003;61766;60.318;25.044;2022-11-20T02:41:03;1;1;
73517;PMS5003;61766;60.318;25.044;2022-11-20T02:43:28;2;2;
73517;PMS5003;61766;60.318;25.044;2022-11-20T02:45:54;2;2;
73517;PMS5003;61766;60.318;25.044;2022-11-20T02:48:20;4;4;
73517;PMS5003;61766;60.318;25.044;2022-11-20T02:50:45;2;2;
73517;PMS5003;61766;60.318;25.044;2022-11-20T02:53:10;1;1;
73517;PMS5003;61766;60.318;25.044;2022-11-20T02:55:36;4;3;
73517;PMS5003;61766;60.318;25.044;2022-11-20T02:58:01;3;3;
73517;PMS5003;61766;60.318;25.044;2022-11-20T03:00:26;4;3;
73517;PMS5003;61766;60.318;25.044;2022-11-20T03:02:51;1;1;
73517;PMS5003;61766;60.318;25.044;2022-11-20T03:05:16;3;3;
73517;PMS5003;61766;60.318;25.044;2022-11-20T03:07:43;2;2;
73517;PMS5003;61766;60.318;25.044;2022-11-20T03:10:08;1;1;
73517;PMS5003;61766;60.318;25.044;2022-11-20T03:12:32;2;2;
73517;PMS5003;61766;60.318;25.044;2022-11-20T03:14:58;1;1;
73517;PMS5003;61766;60.318;25.044;2022-11-20T03:17:23;2;2;
73517;PMS5003;61766;60.318;25.044;2022-11-20T03:19:48;3;3;
73517;PMS5003;61766;60.318;25.044;2022-11-20T03:22:13;3;3;
73517;PMS5003;61766;60.318;25.044;2022-11-20T03:24:39;2;2;
73517;PMS5003;61766;60.318;25.044;2022-11-20T03:27:04;3;3;
73517;PMS5003;61766;60.318;25.044;2022-11-20T03:29:29;2;2;
73517;PMS5003;61766;60.318;25.044;2022-11-20T03:31:54;4;3;
73517;PMS5003;61766;60.318;25.044;2022-11-20T03:34:20;4;3;
73517;PMS5003;61766;60.318;25.044;2022-11-20T03:36:45;3;2;
73517;PMS5003;61766;60.318;25.044;2022-11-20T03:39:10;2;2;
73517;PMS5003;61766;60.318;25.044;2022-11-20T03:41:36;2;2;
73517;PMS5003;61766;60.318;25.044;2022-11-20T03:44:02;1;1;
73517;PMS5003;61766;60.318;25.044;2022-11-20T03:46:26;2;2;
73517;PMS5003;61766;60.318;25.044;2022-11-20T03:48:52;2;2;
73517;PMS5003;61766;60.318;25.044;2022-11-20T03:51:18;2;2;
73517;PMS5003;61766;60.318;25.044;2022-11-20T03:53:43;3;3;
73517;PMS5003;61766;60.318;25.044;2022-11-20T03:56:08;3;2;
73517;PMS5003;61766;60.318;25.044;2022-11-20T03:58:33;3;2;
73517;PMS5003;61766;60.318;25.044;2022-11-20T04:00:58;2;2;
73517;PMS5003;61766;60.318;25.044;2022-11-20T04:03:23;3;3;
73517;PMS5003;61766;60.318;25.044;2022-11-20T04:05:48;2;2;
73517;PMS5003;61766;60.318;25.044;2022-11-20T04:08:14;2;2;
73517;PMS5003;61766;60.318;25.044;2022-11-20T04:10:39;3;3;
73517;PMS5003;61766;60.318;25.044;2022-11-20T04:13:04;1;1;
73517;PMS5003;61766;60.318;25.044;2022-11-20T04:15:29;2;2;
73517;PMS5003;61766;60.318;25.044;2022-11-20T04:17:55;3;2;
73517;PMS5003;61766;60.318;25.044;2022-11-20T04:20:20;2;2;
73517;PMS5003;61766;60.318;25.044;2022-11-20T04:22:45;2;2;
73517;PMS5003;61766;60.318;25.044;2022-11-20T04:25:10;2;2;
73517;PMS5003;61766;60.318;25.044;2022-11-20T04:27:36;2;2;
73517;PMS5003;61766;60.318;25.044;2022-11-20T04:30:01;2;2;
73517;PMS5003;61766;60.318;25.044;2022-11-20T04:32:26;2;2;
73517;PMS5003;61766;60.318;25.044;2022-11-20T04:34:51;2;2;
73517;PMS5003;61766;60.318;25.044;2022-11-20T04:37:17;2;2;
73517;PMS5003;61766;60.318;25.044;2022-11-20T04:39:42;2;2;
73517;PMS5003;61766;60.318;25.044;2022-11-20T04:42:08;2;2;
73517;PMS5003;61766;60.318;25.044;2022-11-20T04:44:33;4;4;
73517;PMS5003;61766;60.318;25.044;2022-11-20T04:46:58;2;2;
73517;PMS5003;61766;60.318;25.044;2022-11-20T04:49:23;2;2;
73517;PMS5003;61766;60.318;25.044;2022-11-20T04:51:48;2;2;
73517;PMS5003;61766;60.318;25.044;2022-11-20T04:54:14;3;3;
73517;PMS5003;61766;60.318;25.044;2022-11-20T04:56:39;2;2;
73517;PMS5003;61766;60.318;25.044;2022-11-20T04:59:04;4;4;
73517;PMS5003;61766;60.318;25.044;2022-11-20T05:01:29;3;3;
73517;PMS5003;61766;60.318;25.044;2022-11-20T05:03:55;2;2;
73517;PMS5003;61766;60.318;25.044;2022-11-20T05:06:20;4;4;
73517;PMS5003;61766;60.318;25.044;2022-11-20T05:08:45;4;3;
73517;PMS5003;61766;60.318;25.044;2022-11-20T05:11:11;2;2;
73517;PMS5003;61766;60.318;25.044;2022-11-20T05:13:36;3;3;
73517;PMS5003;61766;60.318;25.044;2022-11-20T05:16:02;3;3;
73517;PMS5003;61766;60.318;25.044;2022-11-20T05:18:27;3;3;
73517;PMS5003;61766;60.318;25.044;2022-11-20T05:20:54;4;4;
73517;PMS5003;61766;60.318;25.044;2022-11-20T05:23:17;4;4;
73517;PMS5003;61766;60.318;25.044;2022-11-20T05:25:42;5;4;
73517;PMS5003;61766;60.318;25.044;2022-11-20T05:28:08;4;4;
73517;PMS5003;61766;60.318;25.044;2022-11-20T05:30:33;5;5;
73517;PMS5003;61766;60.318;25.044;2022-11-20T05:32:58;4;4;
73517;PMS5003;61766;60.318;25.044;2022-11-20T05:35:23;3;3;
73517;PMS5003;61766;60.318;25.044;2022-11-20T05:37:48;3;3;
73517;PMS5003;61766;60.318;25.044;2022-11-20T05:40:14;3;3;
73517;PMS5003;61766;60.318;25.044;2022-11-20T05:42:39;4;4;
73517;PMS5003;61766;60.318;25.044;2022-11-20T05:45:05;5;5;
73517;PMS5003;61766;60.318;25.044;2022-11-20T05:47:31;4;4;
73517;PMS5003;61766;60.318;25.044;2022-11-20T05:49:55;4;3;
73517;PMS5003;61766;60.318;25.044;2022-11-20T05:52:20;3;3;
73517;PMS5003;61766;60.318;25.044;2022-11-20T05:54:45;5;4;
73517;PMS5003;61766;60.318;25.044;2022-11-20T05:57:11;4;4;
73517;PMS5003;61766;60.318;25.044;2022-11-20T05:59:36;5;5;
73517;PMS5003;61766;60.318;25.044;2022-11-20T06:02:01;4;4;
73517;PMS5003;61766;60.318;25.044;2022-11-20T06:04:26;5;5;
73517;PMS5003;61766;60.318;25.044;2022-11-20T06:06:52;5;5;
73517;PMS5003;61766;60.318;25.044;2022-11-20T06:09:17;6;6;
73517;PMS5003;61766;60.318;25.044;2022-11-20T06:11:42;5;5;
73517;PMS5003;61766;60.318;25.044;2022-11-20T06:14:08;6;6;
73517;PMS5003;61766;60.318;25.044;2022-11-20T06:16:33;5;5;
73517;PMS5003;61766;60.318;25.044;2022-11-20T06:18:58;5;5;
73517;PMS5003;61766;60.318;25.044;2022-11-20T06:21:23;5;4;
73517;PMS5003;61766;60.318;25.044;2022-11-20T06:23:49;6;6;
73517;PMS5003;61766;60.318;25.044;2022-11-20T06:26:15;6;5;
73517;PMS5003;61766;60.318;25.044;2022-11-20T06:28:39;4;4;
73517;PMS5003;61766;60.318;25.044;2022-11-20T06:31:05;5;5;
73517;PMS5003;61766;60.318;25.044;2022-11-20T06:33:30;8;6;
73517;PMS5003;61766;60.318;25.044;2022-11-20T06:35:56;7;4;
73517;PMS5003;61766;60.318;25.044;2022-11-20T06:38:20;4;4;
73517;PMS5003;61766;60.318;25.044;2022-11-20T06:40:46;6;6;
73517;PMS5003;61766;60.318;25.044;2022-11-20T06:43:11;6;6;
73517;PMS5003;61766;60.318;25.044;2022-11-20T06:45:36;6;6;
73517;PMS5003;61766;60.318;25.044;2022-11-20T06:48:01;5;5;
73517;PMS5003;61766;60.318;25.044;2022-11-20T06:50:27;6;6;
73517;PMS5003;61766;60.318;25.044;2022-11-20T06:52:52;5;5;
73517;PMS5003;61766;60.318;25.044;2022-11-20T06:55:17;7;7;
73517;PMS5003;61766;60.318;25.044;2022-11-20T06:57:42;5;5;
73517;PMS5003;61766;60.318;25.044;2022-11-20T07:00:08;4;4;
73517;PMS5003;61766;60.318;25.044;2022-11-20T07:02:33;6;6;
73517;PMS5003;61766;60.318;25.044;2022-11-20T07:04:58;4;4;
73517;PMS5003;61766;60.318;25.044;2022-11-20T07:07:24;6;6;
73517;PMS5003;61766;60.318;25.044;2022-11-20T07:09:49;8;7;
73517;PMS5003;61766;60.318;25.044;2022-11-20T07:12:14;12;9;
73517;PMS5003;61766;60.318;25.044;2022-11-20T07:14:40;6;6;
73517;PMS5003;61766;60.318;25.044;2022-11-20T07:17:05;7;7;
73517;PMS5003;61766;60.318;25.044;2022-11-20T07:19:30;6;6;
73517;PMS5003;61766;60.318;25.044;2022-11-20T07:21:56;7;6;
73517;PMS5003;61766;60.318;25.044;2022-11-20T07:24:21;7;7;
73517;PMS5003;61766;60.318;25.044;2022-11-20T07:26:46;5;5;
73517;PMS5003;61766;60.318;25.044;2022-11-20T07:29:11;6;6;
73517;PMS5003;61766;60.318;25.044;2022-11-20T07:31:37;5;5;
73517;PMS5003;61766;60.318;25.044;2022-11-20T07:34:02;6;6;
73517;PMS5003;61766;60.318;25.044;2022-11-20T07:36:27;5;5;
73517;PMS5003;61766;60.318;25.044;2022-11-20T07:38:52;4;4;
73517;PMS5003;61766;60.318;25.044;2022-11-20T07:41:18;5;5;
73517;PMS5003;61766;60.318;25.044;2022-11-20T07:43:43;5;5;
73517;PMS5003;61766;60.318;25.044;2022-11-20T07:46:08;4;4;
73517;PMS5003;61766;60.318;25.044;2022-11-20T07:48:33;5;5;
73517;PMS5003;61766;60.318;25.044;2022-11-20T07:50:59;4;4;
73517;PMS5003;61766;60.318;25.044;2022-11-20T07:53:24;6;6;
73517;PMS5003;61766;60.318;25.044;2022-11-20T07:55:49;5;5;
73517;PMS5003;61766;60.318;25.044;2022-11-20T07:58:14;4;4;
73517;PMS5003;61766;60.318;25.044;2022-11-20T08:00:40;6;6;
73517;PMS5003;61766;60.318;25.044;2022-11-20T08:03:05;5;5;
73517;PMS5003;61766;60.318;25.044;2022-11-20T08:05:30;5;5;
73517;PMS5003;61766;60.318;25.044;2022-11-20T08:07:56;5;5;
73517;PMS5003;61766;60.318;25.044;2022-11-20T08:10:21;5;5;
73517;PMS5003;61766;60.318;25.044;2022-11-20T08:12:46;2;2;
73517;PMS5003;61766;60.318;25.044;2022-11-20T08:15:11;4;3;
73517;PMS5003;61766;60.318;25.044;2022-11-20T08:17:37;4;4;
73517;PMS5003;61766;60.318;25.044;2022-11-20T08:20:02;4;4;
73517;PMS5003;61766;60.318;25.044;2022-11-20T08:22:27;4;4;
73517;PMS5003;61766;60.318;25.044;2022-11-20T08:24:52;5;5;
73517;PMS5003;61766;60.318;25.044;2022-11-20T08:27:18;3;3;
73517;PMS5003;61766;60.318;25.044;2022-11-20T08:29:43;6;4;
73517;PMS5003;61766;60.318;25.044;2022-11-20T08:32:08;4;4;
73517;PMS5003;61766;60.318;25.044;2022-11-20T08:34:34;4;4;
73517;PMS5003;61766;60.318;25.044;2022-11-20T08:36:59;6;5;
73517;PMS5003;61766;60.318;25.044;2022-11-20T08:39:24;4;4;
73517;PMS5003;61766;60.318;25.044;2022-11-20T08:41:49;4;4;
73517;PMS5003;61766;60.318;25.044;2022-11-20T08:44:15;5;5;
73517;PMS5003;61766;60.318;25.044;2022-11-20T08:46:41;3;3;
73517;PMS5003;61766;60.318;25.044;2022-11-20T08:49:06;5;4;
73517;PMS5003;61766;60.318;25.044;2022-11-20T08:51:31;5;4;
73517;PMS5003;61766;60.318;25.044;2022-11-20T08:53:56;5;4;
73517;PMS5003;61766;60.318;25.044;2022-11-20T08:56:22;4;4;
73517;PMS5003;61766;60.318;25.044;2022-11-20T08:58:47;6;6;
73517;PMS5003;61766;60.318;25.044;2022-11-20T09:01:12;3;3;
73517;PMS5003;61766;60.318;25.044;2022-11-20T09:03:37;4;4;
73517;PMS5003;61766;60.318;25.044;2022-11-20T09:06:04;5;4;
73517;PMS5003;61766;60.318;25.044;2022-11-20T09:08:28;5;5;
73517;PMS5003;61766;60.318;25.044;2022-11-20T09:10:54;4;4;
73517;PMS5003;61766;60.318;25.044;2022-11-20T09:13:19;4;4;
73517;PMS5003;61766;60.318;25.044;2022-11-20T09:15:44;6;5;
73517;PMS5003;61766;60.318;25.044;2022-11-20T09:18:09;7;5;
73517;PMS5003;61766;60.318;25.044;2022-11-20T09:20:34;6;6;
73517;PMS5003;61766;60.318;25.044;2022-11-20T09:23:00;10;8;
73517;PMS5003;61766;60.318;25.044;2022-11-20T09:25:25;6;5;
73517;PMS5003;61766;60.318;25.044;2022-11-20T09:27:54;5;5;
73517;PMS5003;61766;60.318;25.044;2022-11-20T09:30:16;3;3;
73517;PMS5003;61766;60.318;25.044;2022-11-20T09:32:41;5;5;
73517;PMS5003;61766;60.318;25.044;2022-11-20T09:35:07;8;8;
73517;PMS5003;61766;60.318;25.044;2022-11-20T09:37:31;4;4;
73517;PMS5003;61766;60.318;25.044;2022-11-20T09:39:57;6;6;
73517;PMS5003;61766;60.318;25.044;2022-11-20T09:42:26;5;5;
73517;PMS5003;61766;60.318;25.044;2022-11-20T09:44:50;5;5;
73517;PMS5003;61766;60.318;25.044;2022-11-20T09:47:14;6;6;
73517;PMS5003;61766;60.318;25.044;2022-11-20T09:49:41;6;6;
73517;PMS5003;61766;60.318;25.044;2022-11-20T09:52:06;4;4;
73517;PMS5003;61766;60.318;25.044;2022-11-20T09:54:29;5;4;
73517;PMS5003;61766;60.318;25.044;2022-11-20T09:56:55;4;4;
73517;PMS5003;61766;60.318;25.044;2022-11-20T09:59:23;6;6;
73517;PMS5003;61766;60.318;25.044;2022-11-20T10:01:44;4;4;
73517;PMS5003;61766;60.318;25.044;2022-11-20T10:04:10;5;5;
73517;PMS5003;61766;60.318;25.044;2022-11-20T10:06:37;5;5;
73517;PMS5003;61766;60.318;25.044;2022-11-20T10:09:03;6;6;
73517;PMS5003;61766;60.318;25.044;2022-11-20T10:11:28;5;5;
73517;PMS5003;61766;60.318;25.044;2022-11-20T10:13:52;6;6;
73517;PMS5003;61766;60.318;25.044;2022-11-20T10:16:20;4;4;
73517;PMS5003;61766;60.318;25.044;2022-11-20T10:18:45;5;5;
73517;PMS5003;61766;60.318;25.044;2022-11-20T10:21:08;7;7;
73517;PMS5003;61766;60.318;25.044;2022-11-20T10:23:39;7;7;
73517;PMS5003;61766;60.318;25.044;2022-11-20T10:26:00;11;11;
73517;PMS5003;61766;60.318;25.044;2022-11-20T10:28:26;4;4;
73517;PMS5003;61766;60.318;25.044;2022-11-20T10:30:50;6;6;
73517;PMS5003;61766;60.318;25.044;2022-11-20T10:33:15;6;6;
73517;PMS5003;61766;60.318;25.044;2022-11-20T10:35:40;6;6;
73517;PMS5003;61766;60.318;25.044;2022-11-20T10:38:05;5;5;
73517;PMS5003;61766;60.318;25.044;2022-11-20T10:40:31;4;4;
73517;PMS5003;61766;60.318;25.044;2022-11-20T10:42:56;5;5;
73517;PMS5003;61766;60.318;25.044;2022-11-20T10:45:22;5;5;
73517;PMS5003;61766;60.318;25.044;2022-11-20T10:47:45;4;4;
73517;PMS5003;61766;60.318;25.044;2022-11-20T10:50:11;6;6;
73517;PMS5003;61766;60.318;25.044;2022-11-20T10:52:37;7;6;
73517;PMS5003;61766;60.318;25.044;2022-11-20T10:55:05;7;7;
73517;PMS5003;61766;60.318;25.044;2022-11-20T10:57:31;5;5;
73517;PMS5003;61766;60.318;25.044;2022-11-20T10:59:56;4;4;
73517;PMS5003;61766;60.318;25.044;2022-11-20T11:02:18;5;5;
73517;PMS5003;61766;60.318;25.044;2022-11-20T11:04:44;4;4;
73517;PMS5003;61766;60.318;25.044;2022-11-20T11:07:09;5;5;
73517;PMS5003;61766;60.318;25.044;2022-11-20T11:09:34;3;3;
73517;PMS5003;61766;60.318;25.044;2022-11-20T11:11:59;4;4;
73517;PMS5003;61766;60.318;25.044;2022-11-20T11:14:24;6;6;
73517;PMS5003;61766;60.318;25.044;2022-11-20T11:16:50;5;5;
73517;PMS5003;61766;60.318;25.044;2022-11-20T11:19:15;7;7;
73517;PMS5003;61766;60.318;25.044;2022-11-20T11:21:44;5;5;
73517;PMS5003;61766;60.318;25.044;2022-11-20T11:26:31;3;3;
73517;PMS5003;61766;60.318;25.044;2022-11-20T11:28:56;5;3;
73517;PMS5003;61766;60.318;25.044;2022-11-20T11:31:22;3;3;
73517;PMS5003;61766;60.318;25.044;2022-11-20T11:33:46;6;5;
73517;PMS5003;61766;60.318;25.044;2022-11-20T11:36:16;7;4;
73517;PMS5003;61766;60.318;25.044;2022-11-20T11:38:38;4;4;
73517;PMS5003;61766;60.318;25.044;2022-11-20T11:41:03;5;4;
73517;PMS5003;61766;60.318;25.044;2022-11-20T11:43:28;7;7;
73517;PMS5003;61766;60.318;25.044;2022-11-20T11:45:54;4;4;
73517;PMS5003;61766;60.318;25.044;2022-11-20T11:48:18;6;6;
73517;PMS5003;61766;60.318;25.044;2022-11-20T11:50:48;7;6;
73517;PMS5003;61766;60.318;25.044;2022-11-20T11:53:13;5;4;
73517;PMS5003;61766;60.318;25.044;2022-11-20T11:55:36;4;4;
73517;PMS5003;61766;60.318;25.044;2022-11-20T11:58:06;3;3;
73517;PMS5003;61766;60.318;25.044;2022-11-20T12:00:25;3;3;
73517;PMS5003;61766;60.318;25.044;2022-11-20T12:02:54;3;3;
73517;PMS5003;61766;60.318;25.044;2022-11-20T12:05:17;3;3;
73517;PMS5003;61766;60.318;25.044;2022-11-20T12:07:41;2;2;
73517;PMS5003;61766;60.318;25.044;2022-11-20T12:10:08;2;2;
73517;PMS5003;61766;60.318;25.044;2022-11-20T12:12:32;3;3;
73517;PMS5003;61766;60.318;25.044;2022-11-20T12:14:56;3;3;
73517;PMS5003;61766;60.318;25.044;2022-11-20T12:17:22;3;3;
73517;PMS5003;61766;60.318;25.044;2022-11-20T12:19:47;4;3;
73517;PMS5003;61766;60.318;25.044;2022-11-20T12:22:16;8;7;
73517;PMS5003;61766;60.318;25.044;2022-11-20T12:24:41;4;3;
73517;PMS5003;61766;60.318;25.044;2022-11-20T12:27:08;4;4;
73517;PMS5003;61766;60.318;25.044;2022-11-20T12:29:32;3;3;
73517;PMS5003;61766;60.318;25.044;2022-11-20T12:31:58;4;4;
73517;PMS5003;61766;60.318;25.044;2022-11-20T12:34:24;6;6;
73517;PMS5003;61766;60.318;25.044;2022-11-20T12:36:45;6;6;
73517;PMS5003;61766;60.318;25.044;2022-11-20T12:39:15;5;5;
73517;PMS5003;61766;60.318;25.044;2022-11-20T12:44:01;4;3;
73517;PMS5003;61766;60.318;25.044;2022-11-20T12:46:26;5;5;
73517;PMS5003;61766;60.318;25.044;2022-11-20T12:48:53;4;4;
73517;PMS5003;61766;60.318;25.044;2022-11-20T12:51:22;4;4;
73517;PMS5003;61766;60.318;25.044;2022-11-20T12:53:42;5;4;
73517;PMS5003;61766;60.318;25.044;2022-11-20T12:56:10;6;6;
73517;PMS5003;61766;60.318;25.044;2022-11-20T12:58:33;5;5;
73517;PMS5003;61766;60.318;25.044;2022-11-20T13:00:58;5;5;
73517;PMS5003;61766;60.318;25.044;2022-11-20T13:03:26;3;3;
73517;PMS5003;61766;60.318;25.044;2022-11-20T13:05:51;11;11;
73517;PMS5003;61766;60.318;25.044;2022-11-20T13:08:14;14;12;
73517;PMS5003;61766;60.318;25.044;2022-11-20T13:10:39;6;6;
73517;PMS5003;61766;60.318;25.044;2022-11-20T13:13:04;4;4;
73517;PMS5003;61766;60.318;25.044;2022-11-20T13:15:33;7;6;
73517;PMS5003;61766;60.318;25.044;2022-11-20T13:17:54;5;5;
73517;PMS5003;61766;60.318;25.044;2022-11-20T13:20:19;6;6;
73517;PMS5003;61766;60.318;25.044;2022-11-20T13:22:45;5;5;
73517;PMS5003;61766;60.318;25.044;2022-11-20T13:25:09;8;8;
73517;PMS5003;61766;60.318;25.044;2022-11-20T13:27:35;3;3;
73517;PMS5003;61766;60.318;25.044;2022-11-20T13:30:01;3;3;
73517;PMS5003;61766;60.318;25.044;2022-11-20T13:32:25;4;4;
73517;PMS5003;61766;60.318;25.044;2022-11-20T13:34:51;6;6;
73517;PMS5003;61766;60.318;25.044;2022-11-20T13:39:41;6;5;
73517;PMS5003;61766;60.318;25.044;2022-11-20T13:44:34;7;7;
73517;PMS5003;61766;60.318;25.044;2022-11-20T13:46:57;8;7;
73517;PMS5003;61766;60.318;25.044;2022-11-20T13:49:25;8;8;
73517;PMS5003;61766;60.318;25.044;2022-11-20T13:51:49;7;7;
73517;PMS5003;61766;60.318;25.044;2022-11-20T13:54:18;5;5;
73517;PMS5003;61766;60.318;25.044;2022-11-20T13:56:43;7;7;
73517;PMS5003;61766;60.318;25.044;2022-11-20T13:59:06;5;5;
73517;PMS5003;61766;60.318;25.044;2022-11-20T14:01:30;8;8;
73517;PMS5003;61766;60.318;25.044;2022-11-20T14:03:55;7;7;
73517;PMS5003;61766;60.318;25.044;2022-11-20T14:06:24;28;26;
73517;PMS5003;61766;60.318;25.044;2022-11-20T14:08:46;19;17;
73517;PMS5003;61766;60.318;25.044;2022-11-20T14:11:13;15;14;
73517;PMS5003;61766;60.318;25.044;2022-11-20T14:13:37;14;13;
73517;PMS5003;61766;60.318;25.044;2022-11-20T14:16:02;7;7;
73517;PMS5003;61766;60.318;25.044;2022-11-20T14:18:27;8;8;
73517;PMS5003;61766;60.318;25.044;2022-11-20T14:20:53;17;16;
73517;PMS5003;61766;60.318;25.044;2022-11-20T14:23:23;12;11;
73517;PMS5003;61766;60.318;25.044;2022-11-20T14:25:43;6;6;
73517;PMS5003;61766;60.318;25.044;2022-11-20T14:28:10;7;7;
73517;PMS5003;61766;60.318;25.044;2022-11-20T14:30:37;13;12;
73517;PMS5003;61766;60.318;25.044;2022-11-20T14:33:01;7;6;
73517;PMS5003;61766;60.318;25.044;2022-11-20T14:35:26;7;7;
73517;PMS5003;61766;60.318;25.044;2022-11-20T14:37:50;8;8;
73517;PMS5003;61766;60.318;25.044;2022-11-20T14:40:22;6;6;
73517;PMS5003;61766;60.318;25.044;2022-11-20T14:42:43;7;6;
73517;PMS5003;61766;60.318;25.044;2022-11-20T14:45:07;6;6;
73517;PMS5003;61766;60.318;25.044;2022-11-20T14:47:31;6;6;
73517;PMS5003;61766;60.318;25.044;2022-11-20T14:49:57;9;9;
73517;PMS5003;61766;60.318;25.044;2022-11-20T14:52:22;6;6;
73517;PMS5003;61766;60.318;25.044;2022-11-20T14:54:48;11;11;
73517;PMS5003;61766;60.318;25.044;2022-11-20T14:57:20;9;9;
73517;PMS5003;61766;60.318;25.044;2022-11-20T14:59:38;8;7;
73517;PMS5003;61766;60.318;25.044;2022-11-20T15:02:04;6;6;
73517;PMS5003;61766;60.318;25.044;2022-11-20T15:04:28;9;9;
73517;PMS5003;61766;60.318;25.044;2022-11-20T15:06:55;8;8;
73517;PMS5003;61766;60.318;25.044;2022-11-20T15:09:19;14;14;
73517;PMS5003;61766;60.318;25.044;2022-11-20T15:14:09;44;43;
73517;PMS5003;61766;60.318;25.044;2022-11-20T15:16:35;55;52;
73517;PMS5003;61766;60.318;25.044;2022-11-20T15:19:00;24;24;
73517;PMS5003;61766;60.318;25.044;2022-11-20T15:21:25;28;27;
73517;PMS5003;61766;60.318;25.044;2022-11-20T15:23:50;14;13;
73517;PMS5003;61766;60.318;25.044;2022-11-20T15:26:18;15;15;
73517;PMS5003;61766;60.318;25.044;2022-11-20T15:28:41;14;13;
73517;PMS5003;61766;60.318;25.044;2022-11-20T15:31:06;13;13;
73517;PMS5003;61766;60.318;25.044;2022-11-20T15:33:31;12;10;
73517;PMS5003;61766;60.318;25.044;2022-11-20T15:35:57;28;27;
73517;PMS5003;61766;60.318;25.044;2022-11-20T15:38:22;57;52;
73517;PMS5003;61766;60.318;25.044;2022-11-20T15:40:48;33;31;
73517;PMS5003;61766;60.318;25.044;2022-11-20T15:43:13;24;24;
73517;PMS5003;61766;60.318;25.044;2022-11-20T15:45:39;19;17;
73517;PMS5003;61766;60.318;25.044;2022-11-20T15:48:04;8;8;
73517;PMS5003;61766;60.318;25.044;2022-11-20T15:50:37;16;16;
73517;PMS5003;61766;60.318;25.044;2022-11-20T15:52:54;14;12;
73517;PMS5003;61766;60.318;25.044;2022-11-20T15:55:19;7;7;
73517;PMS5003;61766;60.318;25.044;2022-11-20T15:57:45;9;9;
73517;PMS5003;61766;60.318;25.044;2022-11-20T16:00:10;10;10;
73517;PMS5003;61766;60.318;25.044;2022-11-20T16:02:35;10;10;
73517;PMS5003;61766;60.318;25.044;2022-11-20T16:05:00;11;9;
73517;PMS5003;61766;60.318;25.044;2022-11-20T16:07:26;11;9;
73517;PMS5003;61766;60.318;25.044;2022-11-20T16:09:51;7;7;
73517;PMS5003;61766;60.318;25.044;2022-11-20T16:12:16;10;10;
73517;PMS5003;61766;60.318;25.044;2022-11-20T16:14:42;11;10;
73517;PMS5003;61766;60.318;25.044;2022-11-20T16:17:07;13;12;
73517;PMS5003;61766;60.318;25.044;2022-11-20T16:19:32;7;7;
73517;PMS5003;61766;60.318;25.044;2022-11-20T16:21:58;9;7;
73517;PMS5003;61766;60.318;25.044;2022-11-20T16:24:23;7;7;
73517;PMS5003;61766;60.318;25.044;2022-11-20T16:26:48;9;9;
73517;PMS5003;61766;60.318;25.044;2022-11-20T16:29:14;9;9;
73517;PMS5003;61766;60.318;25.044;2022-11-20T16:31:39;11;11;